createdAt,value
2022-11-24T00:03:45.828Z,12.87
2022-11-24T00:09:05.161Z,12.87
2022-11-24T00:14:23.509Z,12.88
2022-11-24T00:25:01.978Z,12.87
2022-11-24T00:30:20.905Z,12.87
2022-11-24T00:35:39.403Z,12.88
2022-11-24T00:40:58.372Z,12.87
2022-11-24T00:46:18.111Z,12.88
2022-11-24T00:51:37.374Z,12.87
2022-11-24T00:56:56.749Z,12.87
2022-11-24T01:07:35.524Z,12.87
2022-11-24T01:12:54.778Z,12.87
2022-11-24T01:18:14.315Z,12.87
2022-11-24T01:23:34.024Z,12.87
2022-11-24T01:28:53.800Z,12.87
2022-11-24T01:34:12.347Z,12.86
2022-11-24T01:39:31.471Z,12.86
2022-11-24T01:44:50.268Z,12.87
2022-11-24T01:55:28.055Z,12.86
2022-11-24T02:00:47.067Z,12.87
2022-11-24T02:06:06.056Z,12.86
2022-11-24T02:11:25.644Z,12.86
2022-11-24T02:16:44.970Z,12.86
2022-11-24T02:27:23.984Z,12.86
2022-11-24T02:32:42.842Z,12.86
2022-11-24T02:38:01.047Z,12.86
2022-11-24T02:43:20.125Z,12.86
2022-11-24T02:48:39.722Z,12.86
2022-11-24T02:53:59.354Z,12.86
2022-11-24T02:59:19.181Z,12.85
2022-11-24T03:04:37.960Z,12.86
2022-11-24T03:09:57.635Z,12.86
2022-11-24T03:16:31.854Z,12.86
2022-11-24T03:20:34.867Z,12.85
2022-11-24T03:25:53.670Z,12.86
2022-11-24T03:31:13.065Z,12.86
2022-11-24T03:36:32.096Z,12.85
2022-11-24T03:41:51.614Z,12.85
2022-11-24T03:47:10.484Z,12.85
2022-11-24T03:52:29.634Z,12.84
2022-11-24T03:57:49.024Z,12.85
2022-11-24T04:03:07.209Z,12.85
2022-11-24T04:08:25.978Z,12.85
2022-11-24T04:13:44.812Z,12.85
2022-11-24T04:19:03.847Z,12.85
2022-11-24T04:24:23.459Z,12.84
2022-11-24T04:35:02.141Z,12.84
2022-11-24T04:40:22.378Z,12.84
2022-11-24T04:51:00.107Z,12.84
2022-11-24T04:56:18.536Z,12.84
2022-11-24T05:01:38.237Z,12.84
2022-11-24T05:06:57.651Z,12.84
2022-11-24T05:12:17.286Z,12.84
2022-11-24T05:17:36.534Z,12.84
2022-11-24T05:22:55.949Z,12.83
2022-11-24T05:28:14.983Z,12.84
2022-11-24T05:33:34.366Z,12.84
2022-11-24T05:38:53.693Z,12.84
2022-11-24T05:44:12.795Z,12.84
2022-11-24T05:49:32.266Z,12.83
2022-11-24T05:54:51.498Z,12.84
2022-11-24T06:00:10.835Z,12.83
2022-11-24T06:05:30.347Z,12.83
2022-11-24T06:10:49.929Z,12.83
2022-11-24T06:16:09.372Z,12.83
2022-11-24T06:21:28.521Z,12.83
2022-11-24T06:26:47.684Z,12.83
2022-11-24T06:32:05.889Z,12.83
2022-11-24T06:37:24.536Z,12.83
2022-11-24T06:42:43.513Z,12.83
2022-11-24T06:48:02.939Z,12.83
2022-11-24T06:53:22.982Z,12.82
2022-11-24T06:58:42.049Z,12.83
2022-11-24T07:04:00.951Z,12.82
2022-11-24T07:09:20.353Z,12.82
2022-11-24T07:15:54.537Z,12.82
2022-11-24T07:20:11.047Z,12.82
2022-11-24T07:25:19.132Z,12.83
2022-11-24T07:30:38.191Z,12.82
2022-11-24T07:44:30.001Z,12.83
2022-11-24T07:48:46.526Z,12.84
2022-11-24T07:51:53.056Z,12.82
2022-11-24T07:57:13.209Z,12.83
2022-11-24T08:02:32.802Z,12.84
2022-11-24T08:07:52.416Z,12.84
2022-11-24T08:14:26.508Z,12.83
2022-11-24T08:23:50.939Z,12.85
2022-11-24T08:32:24.049Z,12.82
2022-11-24T08:34:29.388Z,12.84
2022-11-24T08:39:49.060Z,12.88
2022-11-24T08:45:20.207Z,12.92
2022-11-24T08:50:28.259Z,12.93
2022-11-24T08:55:46.966Z,12.89
2022-11-24T09:01:06.729Z,12.88
2022-11-24T09:06:25.492Z,12.88
2022-11-24T09:14:58.564Z,12.89
2022-11-24T09:19:14.027Z,12.91
2022-11-24T09:22:22.246Z,12.92
2022-11-24T09:28:56.376Z,12.96
2022-11-24T09:33:11.820Z,12.95
2022-11-24T09:38:19.221Z,12.94
2022-11-24T09:44:53.311Z,12.92
2022-11-24T09:48:58.259Z,12.91
2022-11-24T09:54:17.964Z,12.9
2022-11-24T09:59:36.956Z,13
2022-11-24T10:04:54.545Z,13.11
2022-11-24T10:10:13.743Z,13.25
2022-11-24T10:15:33.611Z,13.56
2022-11-24T10:20:53.020Z,13.5
2022-11-24T10:26:12.562Z,13.44
2022-11-24T10:31:31.931Z,13.52
2022-11-24T10:42:09.675Z,13.62
2022-11-24T10:47:28.865Z,13.61
2022-11-24T10:52:49.043Z,14.38
2022-11-24T10:58:07.998Z,14.39
2022-11-24T11:03:27.425Z,14.21
2022-11-24T11:08:46.431Z,14.31
2022-11-24T11:14:05.460Z,14.41
2022-11-24T11:19:47.181Z,14.38
2022-11-24T11:24:43.055Z,13.89
2022-11-24T11:40:41.387Z,13.67
2022-11-24T11:46:01.152Z,13.55
2022-11-24T11:51:24.287Z,13.58
2022-11-24T11:56:39.253Z,14.36
2022-11-24T12:01:58.687Z,14.39
2022-11-24T12:07:17.985Z,14.38
2022-11-24T12:12:37.296Z,14.47
2022-11-24T12:17:56.129Z,14.36
2022-11-24T12:23:15.136Z,14.35
2022-11-24T12:28:34.056Z,14.37
2022-11-24T12:33:57.960Z,13.82
2022-11-24T12:39:12.497Z,13.62
2022-11-24T12:44:31.969Z,13.54
2022-11-24T12:49:51.598Z,13.55
2022-11-24T12:55:11.274Z,13.98
2022-11-24T13:00:29.598Z,13.78
2022-11-24T13:05:48.933Z,13.69
2022-11-24T13:11:08.505Z,13.64
2022-11-24T13:16:36.005Z,14.05
2022-11-24T13:21:55.660Z,14.16
2022-11-24T13:27:05.631Z,14.36
2022-11-24T13:32:25.090Z,14.36
2022-11-24T13:37:45.384Z,14.32
2022-11-24T13:43:04.273Z,14.32
2022-11-24T13:43:30.350Z,13.82
2022-11-24T13:54:09.128Z,13.54
2022-11-24T13:59:28.451Z,13.52
2022-11-24T14:04:47.925Z,13.42
2022-11-24T14:10:06.460Z,13.35
2022-11-24T14:15:26.197Z,13.34
2022-11-24T14:20:45.575Z,13.35
2022-11-24T14:27:19.679Z,13.35
2022-11-24T14:31:23.816Z,13.28
2022-11-24T14:36:43.403Z,13.23
2022-11-24T14:47:27.250Z,13.23
2022-11-24T14:52:42.042Z,13.4
2022-11-24T14:58:01.011Z,14.3
2022-11-24T15:03:20.225Z,13.27
2022-11-24T15:08:39.879Z,13.2
2022-11-24T15:13:58.265Z,13.13
2022-11-24T15:19:17.293Z,13.09
2022-11-24T15:29:55.713Z,13.05
2022-11-24T15:35:15.393Z,13.04
2022-11-24T15:40:34.521Z,13.03
2022-11-24T15:45:54.166Z,13.02
2022-11-24T15:51:13.637Z,13.02
2022-11-24T15:56:32.619Z,13.01
2022-11-24T16:01:52.290Z,13.01
2022-11-24T16:07:20.638Z,13
2022-11-24T16:12:30.779Z,12.99
2022-11-24T16:17:50.510Z,12.99
2022-11-24T16:23:09.244Z,12.99
2022-11-24T16:28:28.420Z,12.98
2022-11-24T16:33:47.538Z,12.97
2022-11-24T16:39:06.325Z,12.97
2022-11-24T16:44:25.295Z,12.96
2022-11-24T16:55:03.951Z,12.96
2022-11-24T17:00:22.987Z,12.96
2022-11-24T17:05:42.706Z,12.95
2022-11-24T17:11:01.685Z,12.95
2022-11-24T17:16:21.086Z,12.94
2022-11-24T17:21:40.228Z,12.94
2022-11-24T17:26:59.114Z,12.94
2022-11-24T17:32:18.164Z,12.94
2022-11-24T17:37:37.042Z,12.94
2022-11-24T17:42:56.312Z,12.93
2022-11-24T17:48:15.408Z,12.93
2022-11-24T17:53:34.563Z,12.92
2022-11-24T17:58:54.124Z,12.92
2022-11-24T18:04:12.966Z,12.92
2022-11-24T18:09:32.269Z,12.92
2022-11-24T18:14:51.411Z,12.92
2022-11-24T18:20:10.501Z,12.91
2022-11-24T18:25:30.005Z,12.91
2022-11-24T18:30:49.061Z,12.9
2022-11-24T18:36:09.031Z,12.9
2022-11-24T18:41:28.151Z,12.9
2022-11-24T18:46:47.535Z,12.9
2022-11-24T18:52:06.508Z,12.89
2022-11-24T19:02:45.579Z,12.89
2022-11-24T19:08:04.521Z,12.89
2022-11-24T19:14:38.746Z,12.88
2022-11-24T19:18:47.601Z,12.88
2022-11-24T19:29:23.415Z,12.87
2022-11-24T19:34:43.127Z,12.87
2022-11-24T19:45:20.554Z,12.87
2022-11-24T19:50:40.208Z,12.86
2022-11-24T20:01:18.206Z,12.86
2022-11-24T20:06:37.202Z,12.86
2022-11-24T20:11:56.654Z,12.86
2022-11-24T20:17:15.979Z,12.85
2022-11-24T20:22:35.248Z,12.85
2022-11-24T20:27:54.659Z,12.85
2022-11-24T20:33:13.885Z,12.85
2022-11-24T20:38:33.537Z,12.84
2022-11-24T20:43:52.978Z,12.84
2022-11-24T20:49:12.237Z,12.84
2022-11-24T20:54:31.153Z,12.84
2022-11-24T20:59:50.634Z,12.83
2022-11-24T21:05:09.604Z,12.83
2022-11-24T21:10:28.989Z,12.82
2022-11-24T21:15:47.765Z,12.82
2022-11-24T21:26:26.900Z,12.82
2022-11-24T21:31:46.884Z,12.82
2022-11-24T21:37:06.671Z,12.82
2022-11-24T21:42:25.563Z,12.81
2022-11-24T21:47:45.293Z,12.81
2022-11-24T21:53:04.985Z,12.81
2022-11-24T21:58:24.319Z,12.8
2022-11-24T22:03:53.455Z,12.8
2022-11-24T22:09:03.196Z,12.8
2022-11-24T22:14:22.848Z,12.8
2022-11-24T22:19:42.272Z,12.8
2022-11-24T22:25:02.026Z,12.79
2022-11-24T22:30:21.192Z,12.79
2022-11-24T22:35:40.987Z,12.78
2022-11-24T22:40:59.844Z,12.79
2022-11-24T22:46:18.871Z,12.79
2022-11-24T22:51:39.293Z,12.79
2022-11-24T23:02:17.973Z,12.78
2022-11-24T23:07:37.300Z,12.78
2022-11-24T23:12:57.023Z,12.77
2022-11-24T23:18:16.780Z,12.78
2022-11-24T23:23:35.562Z,12.77
2022-11-24T23:28:54.438Z,12.77
2022-11-24T23:34:13.556Z,12.76
2022-11-24T23:45:00.676Z,12.76
2022-11-24T23:50:11.835Z,12.76
2022-11-24T23:55:30.829Z,12.76
